sensor_id;sensor_type;location;lat;lon;timestamp;pressure;altitude;pressure_sealevel;temperature;humidity
74524;BME280;63074;44.696;10.358;2023-02-26T00:01:14;98119.22;;;11.14;100.00
74524;BME280;63074;44.696;10.358;2023-02-26T00:03:41;98116.22;;;11.21;100.00
74524;BME280;63074;44.696;10.358;2023-02-26T00:06:07;98113.56;;;11.16;100.00
74524;BME280;63074;44.696;10.358;2023-02-26T00:08:34;98115.47;;;11.15;100.00
74524;BME280;63074;44.696;10.358;2023-02-26T00:11:01;98112.13;;;11.00;100.00
74524;BME280;63074;44.696;10.358;2023-02-26T00:13:31;98104.66;;;10.97;100.00
74524;BME280;63074;44.696;10.358;2023-02-26T00:15:59;98104.75;;;10.87;100.00
74524;BME280;63074;44.696;10.358;2023-02-26T00:18:26;98101.88;;;11.02;100.00
74524;BME280;63074;44.696;10.358;2023-02-26T00:20:52;98103.25;;;10.99;100.00
74524;BME280;63074;44.696;10.358;2023-02-26T00:23:19;98100.53;;;11.04;100.00
74524;BME280;63074;44.696;10.358;2023-02-26T00:25:45;98103.34;;;10.94;100.00
74524;BME280;63074;44.696;10.358;2023-02-26T00:28:12;98106.59;;;10.91;100.00
74524;BME280;63074;44.696;10.358;2023-02-26T00:30:39;98114.59;;;10.96;100.00
74524;BME280;63074;44.696;10.358;2023-02-26T00:33:05;98111.97;;;10.91;100.00
74524;BME280;63074;44.696;10.358;2023-02-26T00:35:32;98107.63;;;10.95;100.00
74524;BME280;63074;44.696;10.358;2023-02-26T00:38:12;98108.06;;;11.02;100.00
74524;BME280;63074;44.696;10.358;2023-02-26T00:40:49;98109.56;;;11.13;100.00
74524;BME280;63074;44.696;10.358;2023-02-26T00:43:19;98109.63;;;11.08;100.00
74524;BME280;63074;44.696;10.358;2023-02-26T00:46:09;98103.66;;;11.11;100.00
74524;BME280;63074;44.696;10.358;2023-02-26T00:51:35;98095.50;;;11.22;100.00
74524;BME280;63074;44.696;10.358;2023-02-26T00:54:15;98107.91;;;11.18;100.00
74524;BME280;63074;44.696;10.358;2023-02-26T00:56:43;98103.00;;;11.25;100.00
74524;BME280;63074;44.696;10.358;2023-02-26T00:59:09;98104.59;;;11.26;100.00
74524;BME280;63074;44.696;10.358;2023-02-26T01:01:35;98103.09;;;11.14;100.00
74524;BME280;63074;44.696;10.358;2023-02-26T01:04:01;98105.84;;;11.09;100.00
74524;BME280;63074;44.696;10.358;2023-02-26T01:06:31;98101.03;;;11.06;100.00
74524;BME280;63074;44.696;10.358;2023-02-26T01:11:40;98105.38;;;11.02;100.00
74524;BME280;63074;44.696;10.358;2023-02-26T01:14:06;98101.50;;;11.13;100.00
74524;BME280;63074;44.696;10.358;2023-02-26T01:16:53;98096.34;;;11.17;100.00
74524;BME280;63074;44.696;10.358;2023-02-26T01:19:41;98089.03;;;11.23;100.00
74524;BME280;63074;44.696;10.358;2023-02-26T01:22:19;98081.97;;;11.27;100.00
74524;BME280;63074;44.696;10.358;2023-02-26T01:24:48;98086.22;;;11.33;100.00
74524;BME280;63074;44.696;10.358;2023-02-26T01:27:18;98083.53;;;11.33;100.00
74524;BME280;63074;44.696;10.358;2023-02-26T01:29:44;98086.00;;;11.05;100.00
74524;BME280;63074;44.696;10.358;2023-02-26T01:32:22;98089.81;;;10.99;100.00
74524;BME280;63074;44.696;10.358;2023-02-26T01:35:01;98090.34;;;11.01;100.00
74524;BME280;63074;44.696;10.358;2023-02-26T01:38:00;98093.03;;;11.01;100.00
74524;BME280;63074;44.696;10.358;2023-02-26T01:43:56;98083.78;;;10.89;100.00
74524;BME280;63074;44.696;10.358;2023-02-26T01:49:14;98078.00;;;10.71;100.00
74524;BME280;63074;44.696;10.358;2023-02-26T01:51:58;98076.25;;;10.62;100.00
74524;BME280;63074;44.696;10.358;2023-02-26T01:54:31;98071.19;;;10.55;100.00
74524;BME280;63074;44.696;10.358;2023-02-26T01:57:12;98067.63;;;10.65;100.00
74524;BME280;63074;44.696;10.358;2023-02-26T01:59:43;98071.41;;;10.64;100.00
74524;BME280;63074;44.696;10.358;2023-02-26T02:02:12;98068.19;;;10.62;100.00
74524;BME280;63074;44.696;10.358;2023-02-26T02:04:41;98067.06;;;10.68;100.00
74524;BME280;63074;44.696;10.358;2023-02-26T02:07:07;98066.59;;;10.61;100.00
74524;BME280;63074;44.696;10.358;2023-02-26T02:09:34;98067.06;;;10.68;100.00
74524;BME280;63074;44.696;10.358;2023-02-26T02:17:17;98071.50;;;10.77;100.00
74524;BME280;63074;44.696;10.358;2023-02-26T02:31:21;98058.69;;;10.40;100.00
74524;BME280;63074;44.696;10.358;2023-02-26T02:33:57;98063.28;;;10.40;100.00
74524;BME280;63074;44.696;10.358;2023-02-26T02:36:33;98072.94;;;10.70;100.00
74524;BME280;63074;44.696;10.358;2023-02-26T02:39:03;98060.94;;;10.62;100.00
74524;BME280;63074;44.696;10.358;2023-02-26T02:41:38;98065.22;;;10.63;100.00
74524;BME280;63074;44.696;10.358;2023-02-26T02:44:09;98073.56;;;10.62;100.00
74524;BME280;63074;44.696;10.358;2023-02-26T02:46:39;98073.03;;;10.60;100.00
74524;BME280;63074;44.696;10.358;2023-02-26T02:49:11;98080.81;;;10.61;100.00
74524;BME280;63074;44.696;10.358;2023-02-26T02:52:02;98080.94;;;10.46;100.00
74524;BME280;63074;44.696;10.358;2023-02-26T02:54:40;98081.44;;;10.53;100.00
74524;BME280;63074;44.696;10.358;2023-02-26T02:57:21;98081.34;;;10.63;100.00
74524;BME280;63074;44.696;10.358;2023-02-26T02:59:53;98081.63;;;10.62;100.00
74524;BME280;63074;44.696;10.358;2023-02-26T03:02:31;98077.97;;;10.76;100.00
74524;BME280;63074;44.696;10.358;2023-02-26T03:04:59;98079.53;;;10.82;100.00
74524;BME280;63074;44.696;10.358;2023-02-26T03:07:25;98082.44;;;10.86;100.00
74524;BME280;63074;44.696;10.358;2023-02-26T03:09:51;98084.91;;;10.82;100.00
74524;BME280;63074;44.696;10.358;2023-02-26T03:12:18;98078.25;;;10.75;100.00
74524;BME280;63074;44.696;10.358;2023-02-26T03:14:44;98080.28;;;10.88;100.00
74524;BME280;63074;44.696;10.358;2023-02-26T03:28:17;98085.72;;;10.54;100.00
74524;BME280;63074;44.696;10.358;2023-02-26T03:30:50;98087.31;;;10.55;100.00
74524;BME280;63074;44.696;10.358;2023-02-26T03:36:22;98093.28;;;10.47;100.00
74524;BME280;63074;44.696;10.358;2023-02-26T03:42:26;98096.16;;;10.85;100.00
74524;BME280;63074;44.696;10.358;2023-02-26T03:45:15;98098.81;;;10.61;100.00
74524;BME280;63074;44.696;10.358;2023-02-26T03:47:47;98094.53;;;10.60;100.00
74524;BME280;63074;44.696;10.358;2023-02-26T03:50:37;98104.75;;;10.58;100.00
74524;BME280;63074;44.696;10.358;2023-02-26T03:53:05;98102.47;;;10.70;100.00
74524;BME280;63074;44.696;10.358;2023-02-26T03:55:43;98112.47;;;10.35;100.00
74524;BME280;63074;44.696;10.358;2023-02-26T03:58:12;98127.63;;;10.11;100.00
74524;BME280;63074;44.696;10.358;2023-02-26T04:00:41;98133.75;;;10.22;100.00
74524;BME280;63074;44.696;10.358;2023-02-26T04:03:25;98141.41;;;9.99;100.00
74524;BME280;63074;44.696;10.358;2023-02-26T04:05:53;98146.69;;;9.60;100.00
74524;BME280;63074;44.696;10.358;2023-02-26T04:08:21;98159.09;;;9.46;100.00
74524;BME280;63074;44.696;10.358;2023-02-26T04:10:53;98146.81;;;7.77;100.00
74524;BME280;63074;44.696;10.358;2023-02-26T04:13:21;98164.34;;;7.43;100.00
74524;BME280;63074;44.696;10.358;2023-02-26T04:15:47;98181.06;;;7.28;100.00
74524;BME280;63074;44.696;10.358;2023-02-26T04:18:13;98174.44;;;7.36;100.00
74524;BME280;63074;44.696;10.358;2023-02-26T04:20:39;98191.41;;;7.09;100.00
74524;BME280;63074;44.696;10.358;2023-02-26T04:23:06;98193.16;;;6.94;100.00
74524;BME280;63074;44.696;10.358;2023-02-26T04:25:32;98189.72;;;6.98;100.00
74524;BME280;63074;44.696;10.358;2023-02-26T04:27:58;98192.94;;;6.63;100.00
74524;BME280;63074;44.696;10.358;2023-02-26T04:30:24;98214.09;;;6.43;100.00
74524;BME280;63074;44.696;10.358;2023-02-26T04:32:50;98217.16;;;6.57;100.00
74524;BME280;63074;44.696;10.358;2023-02-26T04:35:17;98201.31;;;6.45;100.00
74524;BME280;63074;44.696;10.358;2023-02-26T04:37:43;98221.09;;;6.49;100.00
74524;BME280;63074;44.696;10.358;2023-02-26T04:40:10;98215.50;;;6.51;100.00
74524;BME280;63074;44.696;10.358;2023-02-26T04:42:36;98238.38;;;6.73;100.00
74524;BME280;63074;44.696;10.358;2023-02-26T04:45:02;98245.03;;;7.45;100.00
74524;BME280;63074;44.696;10.358;2023-02-26T04:47:29;98246.69;;;6.77;100.00
74524;BME280;63074;44.696;10.358;2023-02-26T04:49:55;98246.59;;;6.62;100.00
74524;BME280;63074;44.696;10.358;2023-02-26T04:52:21;98223.97;;;6.42;100.00
74524;BME280;63074;44.696;10.358;2023-02-26T04:54:47;98252.00;;;6.72;100.00
74524;BME280;63074;44.696;10.358;2023-02-26T04:57:14;98272.47;;;6.61;100.00
74524;BME280;63074;44.696;10.358;2023-02-26T04:59:40;98285.22;;;6.86;100.00
74524;BME280;63074;44.696;10.358;2023-02-26T05:02:06;98257.16;;;6.52;100.00
74524;BME280;63074;44.696;10.358;2023-02-26T05:04:32;98287.16;;;6.64;100.00
74524;BME280;63074;44.696;10.358;2023-02-26T05:06:59;98292.44;;;6.59;100.00
74524;BME280;63074;44.696;10.358;2023-02-26T05:09:25;98298.59;;;6.59;100.00
74524;BME280;63074;44.696;10.358;2023-02-26T05:11:51;98308.34;;;6.49;100.00
74524;BME280;63074;44.696;10.358;2023-02-26T05:14:17;98308.72;;;6.35;100.00
74524;BME280;63074;44.696;10.358;2023-02-26T05:16:43;98323.84;;;6.25;100.00
74524;BME280;63074;44.696;10.358;2023-02-26T05:19:10;98321.88;;;6.42;100.00
74524;BME280;63074;44.696;10.358;2023-02-26T05:21:36;98316.03;;;6.45;100.00
74524;BME280;63074;44.696;10.358;2023-02-26T05:24:02;98327.81;;;6.22;100.00
74524;BME280;63074;44.696;10.358;2023-02-26T05:26:28;98323.06;;;6.51;100.00
74524;BME280;63074;44.696;10.358;2023-02-26T05:28:55;98320.22;;;6.36;100.00
74524;BME280;63074;44.696;10.358;2023-02-26T05:31:21;98327.41;;;6.57;100.00
74524;BME280;63074;44.696;10.358;2023-02-26T05:33:47;98318.28;;;6.53;100.00
74524;BME280;63074;44.696;10.358;2023-02-26T05:36:14;98318.88;;;6.60;100.00
74524;BME280;63074;44.696;10.358;2023-02-26T05:38:40;98314.91;;;6.63;100.00
74524;BME280;63074;44.696;10.358;2023-02-26T05:41:06;98332.19;;;6.55;100.00
74524;BME280;63074;44.696;10.358;2023-02-26T05:43:32;98319.84;;;6.49;100.00
74524;BME280;63074;44.696;10.358;2023-02-26T05:45:59;98330.25;;;6.51;100.00
74524;BME280;63074;44.696;10.358;2023-02-26T05:48:25;98324.41;;;6.54;100.00
74524;BME280;63074;44.696;10.358;2023-02-26T05:50:51;98332.72;;;6.57;100.00
74524;BME280;63074;44.696;10.358;2023-02-26T05:53:18;98349.88;;;6.66;100.00
74524;BME280;63074;44.696;10.358;2023-02-26T05:55:44;98351.19;;;6.15;100.00
74524;BME280;63074;44.696;10.358;2023-02-26T05:58:10;98361.31;;;6.35;100.00
74524;BME280;63074;44.696;10.358;2023-02-26T06:00:37;98353.66;;;6.43;100.00
74524;BME280;63074;44.696;10.358;2023-02-26T06:03:03;98353.56;;;6.33;100.00
74524;BME280;63074;44.696;10.358;2023-02-26T06:05:29;98370.63;;;6.32;100.00
74524;BME280;63074;44.696;10.358;2023-02-26T06:07:55;98381.31;;;6.16;100.00
74524;BME280;63074;44.696;10.358;2023-02-26T06:10:21;98361.47;;;6.06;100.00
74524;BME280;63074;44.696;10.358;2023-02-26T06:12:48;98380.75;;;6.14;100.00
74524;BME280;63074;44.696;10.358;2023-02-26T06:15:14;98392.22;;;5.92;100.00
74524;BME280;63074;44.696;10.358;2023-02-26T06:17:40;98418.03;;;6.08;100.00
74524;BME280;63074;44.696;10.358;2023-02-26T06:20:07;98429.09;;;6.17;100.00
74524;BME280;63074;44.696;10.358;2023-02-26T06:22:33;98451.84;;;6.03;100.00
74524;BME280;63074;44.696;10.358;2023-02-26T06:24:59;98463.56;;;6.02;100.00
74524;BME280;63074;44.696;10.358;2023-02-26T06:27:26;98467.72;;;5.81;100.00
74524;BME280;63074;44.696;10.358;2023-02-26T06:29:52;98467.16;;;5.46;100.00
74524;BME280;63074;44.696;10.358;2023-02-26T06:32:18;98464.66;;;5.72;100.00
74524;BME280;63074;44.696;10.358;2023-02-26T06:34:44;98479.19;;;5.65;100.00
74524;BME280;63074;44.696;10.358;2023-02-26T06:37:10;98503.06;;;5.43;100.00
74524;BME280;63074;44.696;10.358;2023-02-26T06:39:36;98494.38;;;5.64;100.00
74524;BME280;63074;44.696;10.358;2023-02-26T06:42:03;98494.03;;;5.77;100.00
74524;BME280;63074;44.696;10.358;2023-02-26T06:44:30;98498.41;;;5.84;100.00
74524;BME280;63074;44.696;10.358;2023-02-26T06:46:56;98489.84;;;5.65;100.00
74524;BME280;63074;44.696;10.358;2023-02-26T06:49:22;98498.09;;;5.80;100.00
74524;BME280;63074;44.696;10.358;2023-02-26T06:51:48;98506.97;;;5.86;100.00
74524;BME280;63074;44.696;10.358;2023-02-26T06:54:14;98510.56;;;5.91;100.00
74524;BME280;63074;44.696;10.358;2023-02-26T06:56:41;98515.06;;;5.74;100.00
74524;BME280;63074;44.696;10.358;2023-02-26T06:59:07;98530.72;;;5.70;100.00
74524;BME280;63074;44.696;10.358;2023-02-26T07:01:33;98536.88;;;5.71;100.00
74524;BME280;63074;44.696;10.358;2023-02-26T07:03:59;98531.28;;;5.72;100.00
74524;BME280;63074;44.696;10.358;2023-02-26T07:06:25;98523.34;;;5.61;100.00
74524;BME280;63074;44.696;10.358;2023-02-26T07:08:52;98543.06;;;5.31;100.00
74524;BME280;63074;44.696;10.358;2023-02-26T07:11:18;98553.78;;;5.20;100.00
74524;BME280;63074;44.696;10.358;2023-02-26T07:13:44;98565.31;;;5.25;100.00
74524;BME280;63074;44.696;10.358;2023-02-26T07:16:10;98566.09;;;5.37;100.00
74524;BME280;63074;44.696;10.358;2023-02-26T07:18:37;98572.91;;;5.45;100.00
74524;BME280;63074;44.696;10.358;2023-02-26T07:21:04;98571.69;;;5.24;100.00
74524;BME280;63074;44.696;10.358;2023-02-26T07:23:31;98590.50;;;5.46;100.00
74524;BME280;63074;44.696;10.358;2023-02-26T07:25:57;98586.56;;;5.08;100.00
74524;BME280;63074;44.696;10.358;2023-02-26T07:28:23;98583.38;;;5.35;100.00
74524;BME280;63074;44.696;10.358;2023-02-26T07:30:49;98589.16;;;5.32;100.00
74524;BME280;63074;44.696;10.358;2023-02-26T07:33:18;98589.50;;;5.35;100.00
74524;BME280;63074;44.696;10.358;2023-02-26T07:35:45;98586.44;;;5.15;100.00
74524;BME280;63074;44.696;10.358;2023-02-26T07:38:11;98592.03;;;5.42;100.00
74524;BME280;63074;44.696;10.358;2023-02-26T07:40:37;98586.69;;;5.14;100.00
74524;BME280;63074;44.696;10.358;2023-02-26T07:43:04;98591.78;;;5.03;100.00
74524;BME280;63074;44.696;10.358;2023-02-26T07:45:30;98581.47;;;5.19;100.00
74524;BME280;63074;44.696;10.358;2023-02-26T07:47:56;98604.94;;;5.22;100.00
74524;BME280;63074;44.696;10.358;2023-02-26T07:50:22;98599.88;;;5.08;100.00
74524;BME280;63074;44.696;10.358;2023-02-26T07:52:51;98590.09;;;5.26;100.00
74524;BME280;63074;44.696;10.358;2023-02-26T07:55:18;98598.41;;;5.41;100.00
74524;BME280;63074;44.696;10.358;2023-02-26T07:57:45;98603.53;;;5.31;100.00
74524;BME280;63074;44.696;10.358;2023-02-26T08:00:11;98615.66;;;5.38;100.00
74524;BME280;63074;44.696;10.358;2023-02-26T08:02:38;98617.31;;;5.28;100.00
74524;BME280;63074;44.696;10.358;2023-02-26T08:05:04;98622.69;;;5.04;100.00
74524;BME280;63074;44.696;10.358;2023-02-26T08:07:31;98619.38;;;5.37;100.00
74524;BME280;63074;44.696;10.358;2023-02-26T08:09:57;98622.81;;;5.09;100.00
74524;BME280;63074;44.696;10.358;2023-02-26T08:12:23;98624.19;;;5.12;100.00
74524;BME280;63074;44.696;10.358;2023-02-26T08:14:49;98636.56;;;5.18;100.00
74524;BME280;63074;44.696;10.358;2023-02-26T08:17:15;98642.22;;;5.22;100.00
74524;BME280;63074;44.696;10.358;2023-02-26T08:19:42;98637.16;;;5.08;100.00
74524;BME280;63074;44.696;10.358;2023-02-26T08:22:08;98630.28;;;5.36;100.00
74524;BME280;63074;44.696;10.358;2023-02-26T08:24:34;98645.16;;;5.08;100.00
74524;BME280;63074;44.696;10.358;2023-02-26T08:27:00;98634.44;;;5.32;100.00
74524;BME280;63074;44.696;10.358;2023-02-26T08:29:26;98637.78;;;5.39;100.00
74524;BME280;63074;44.696;10.358;2023-02-26T08:31:52;98649.13;;;5.46;100.00
74524;BME280;63074;44.696;10.358;2023-02-26T08:34:19;98636.06;;;5.33;100.00
74524;BME280;63074;44.696;10.358;2023-02-26T08:36:45;98650.88;;;5.29;100.00
74524;BME280;63074;44.696;10.358;2023-02-26T08:39:11;98655.97;;;5.42;100.00
74524;BME280;63074;44.696;10.358;2023-02-26T08:41:37;98660.25;;;5.43;100.00
74524;BME280;63074;44.696;10.358;2023-02-26T08:44:04;98662.44;;;5.46;100.00
74524;BME280;63074;44.696;10.358;2023-02-26T08:46:30;98663.50;;;5.33;100.00
74524;BME280;63074;44.696;10.358;2023-02-26T08:48:56;98666.34;;;5.55;100.00
74524;BME280;63074;44.696;10.358;2023-02-26T08:51:23;98663.91;;;5.54;100.00
74524;BME280;63074;44.696;10.358;2023-02-26T08:53:49;98694.94;;;5.60;100.00
74524;BME280;63074;44.696;10.358;2023-02-26T08:56:16;98676.81;;;5.45;100.00
74524;BME280;63074;44.696;10.358;2023-02-26T08:58:42;98682.22;;;5.50;100.00
74524;BME280;63074;44.696;10.358;2023-02-26T09:01:09;98678.97;;;5.60;100.00
74524;BME280;63074;44.696;10.358;2023-02-26T09:03:35;98664.06;;;5.47;100.00
74524;BME280;63074;44.696;10.358;2023-02-26T09:06:02;98673.53;;;5.55;100.00
74524;BME280;63074;44.696;10.358;2023-02-26T09:08:30;98677.97;;;5.77;100.00
74524;BME280;63074;44.696;10.358;2023-02-26T09:11:02;98677.41;;;5.75;100.00
74524;BME280;63074;44.696;10.358;2023-02-26T09:13:29;98682.78;;;5.64;100.00
74524;BME280;63074;44.696;10.358;2023-02-26T09:15:55;98686.78;;;5.78;100.00
74524;BME280;63074;44.696;10.358;2023-02-26T09:18:21;98684.25;;;5.71;100.00
74524;BME280;63074;44.696;10.358;2023-02-26T09:20:48;98690.25;;;5.78;100.00
74524;BME280;63074;44.696;10.358;2023-02-26T09:23:14;98672.00;;;5.70;100.00
74524;BME280;63074;44.696;10.358;2023-02-26T09:25:40;98680.56;;;5.72;100.00
74524;BME280;63074;44.696;10.358;2023-02-26T09:28:06;98659.47;;;5.71;100.00
74524;BME280;63074;44.696;10.358;2023-02-26T09:30:32;98692.72;;;5.68;100.00
74524;BME280;63074;44.696;10.358;2023-02-26T09:32:59;98694.81;;;5.66;100.00
74524;BME280;63074;44.696;10.358;2023-02-26T09:35:25;98659.44;;;5.42;100.00
74524;BME280;63074;44.696;10.358;2023-02-26T09:37:51;98687.84;;;5.25;100.00
74524;BME280;63074;44.696;10.358;2023-02-26T09:45:35;98689.03;;;5.18;100.00
74524;BME280;63074;44.696;10.358;2023-02-26T09:48:04;98699.06;;;5.27;100.00
74524;BME280;63074;44.696;10.358;2023-02-26T09:51:02;98716.09;;;5.26;100.00
74524;BME280;63074;44.696;10.358;2023-02-26T09:53:37;98709.59;;;5.22;100.00
74524;BME280;63074;44.696;10.358;2023-02-26T09:56:16;98721.56;;;5.08;100.00
74524;BME280;63074;44.696;10.358;2023-02-26T09:58:43;98720.16;;;5.29;100.00
74524;BME280;63074;44.696;10.358;2023-02-26T10:06:25;98731.50;;;5.24;100.00
74524;BME280;63074;44.696;10.358;2023-02-26T10:11:30;98751.53;;;5.15;100.00
74524;BME280;63074;44.696;10.358;2023-02-26T10:16:38;98717.94;;;5.26;100.00
74524;BME280;63074;44.696;10.358;2023-02-26T10:19:15;98727.13;;;5.18;100.00
74524;BME280;63074;44.696;10.358;2023-02-26T10:24:31;98748.97;;;5.20;100.00
74524;BME280;63074;44.696;10.358;2023-02-26T10:27:06;98751.53;;;5.15;100.00
74524;BME280;63074;44.696;10.358;2023-02-26T10:29:40;98752.22;;;5.11;100.00
74524;BME280;63074;44.696;10.358;2023-02-26T10:32:37;98771.56;;;5.29;100.00
74524;BME280;63074;44.696;10.358;2023-02-26T10:35:12;98765.09;;;5.14;100.00
74524;BME280;63074;44.696;10.358;2023-02-26T10:37:51;98780.59;;;5.05;100.00
74524;BME280;63074;44.696;10.358;2023-02-26T10:51:24;98761.50;;;5.20;100.00
74524;BME280;63074;44.696;10.358;2023-02-26T10:54:11;98767.59;;;4.97;100.00
74524;BME280;63074;44.696;10.358;2023-02-26T10:56:39;98775.59;;;4.97;100.00
74524;BME280;63074;44.696;10.358;2023-02-26T10:59:05;98772.59;;;4.82;100.00
74524;BME280;63074;44.696;10.358;2023-02-26T11:01:32;98782.19;;;4.83;100.00
74524;BME280;63074;44.696;10.358;2023-02-26T11:06:30;98794.66;;;4.70;100.00
74524;BME280;63074;44.696;10.358;2023-02-26T11:08:58;98792.34;;;4.74;100.00
74524;BME280;63074;44.696;10.358;2023-02-26T11:14:32;98801.00;;;4.69;100.00
74524;BME280;63074;44.696;10.358;2023-02-26T11:17:01;98800.72;;;5.01;100.00
74524;BME280;63074;44.696;10.358;2023-02-26T11:19:41;98798.91;;;5.13;100.00
74524;BME280;63074;44.696;10.358;2023-02-26T11:22:14;98779.19;;;5.02;100.00
74524;BME280;63074;44.696;10.358;2023-02-26T11:24:46;98779.75;;;4.81;100.00
74524;BME280;63074;44.696;10.358;2023-02-26T11:27:21;98780.47;;;5.00;100.00
74524;BME280;63074;44.696;10.358;2023-02-26T11:29:58;98772.69;;;4.98;100.00
74524;BME280;63074;44.696;10.358;2023-02-26T11:32:35;98772.59;;;5.05;100.00
74524;BME280;63074;44.696;10.358;2023-02-26T11:35:02;98778.63;;;5.24;100.00
74524;BME280;63074;44.696;10.358;2023-02-26T11:37:35;98767.75;;;5.25;100.00
74524;BME280;63074;44.696;10.358;2023-02-26T11:40:17;98779.69;;;5.11;100.00
74524;BME280;63074;44.696;10.358;2023-02-26T11:42:59;98774.91;;;5.01;100.00
74524;BME280;63074;44.696;10.358;2023-02-26T11:45:28;98764.50;;;5.12;100.00
74524;BME280;63074;44.696;10.358;2023-02-26T11:48:01;98778.28;;;5.08;100.00
74524;BME280;63074;44.696;10.358;2023-02-26T11:50:30;98759.63;;;5.20;100.00
74524;BME280;63074;44.696;10.358;2023-02-26T11:53:15;98774.00;;;5.42;100.00
74524;BME280;63074;44.696;10.358;2023-02-26T11:55:45;98759.75;;;5.37;100.00
74524;BME280;63074;44.696;10.358;2023-02-26T11:58:23;98760.69;;;5.31;100.00
74524;BME280;63074;44.696;10.358;2023-02-26T12:00:54;98757.66;;;5.27;100.00
74524;BME280;63074;44.696;10.358;2023-02-26T12:03:27;98764.38;;;5.30;100.00
74524;BME280;63074;44.696;10.358;2023-02-26T12:05:54;98765.09;;;5.37;100.00
74524;BME280;63074;44.696;10.358;2023-02-26T12:08:29;98762.88;;;5.34;100.00
74524;BME280;63074;44.696;10.358;2023-02-26T12:23:02;98780.25;;;5.48;100.00
74524;BME280;63074;44.696;10.358;2023-02-26T12:51:25;98793.66;;;5.53;100.00
74524;BME280;63074;44.696;10.358;2023-02-26T13:08:42;98800.41;;;5.09;100.00
74524;BME280;63074;44.696;10.358;2023-02-26T13:16:36;98814.75;;;5.31;100.00
74524;BME280;63074;44.696;10.358;2023-02-26T13:22:29;98817.63;;;5.06;100.00
74524;BME280;63074;44.696;10.358;2023-02-26T13:27:36;98833.28;;;5.15;100.00
74524;BME280;63074;44.696;10.358;2023-02-26T13:30:22;98831.09;;;5.12;100.00
74524;BME280;63074;44.696;10.358;2023-02-26T13:32:53;98837.41;;;4.99;100.00
74524;BME280;63074;44.696;10.358;2023-02-26T13:35:36;98829.50;;;4.81;100.00
74524;BME280;63074;44.696;10.358;2023-02-26T13:38:11;98838.81;;;4.90;100.00
74524;BME280;63074;44.696;10.358;2023-02-26T13:43:34;98843.44;;;5.06;100.00
74524;BME280;63074;44.696;10.358;2023-02-26T13:48:56;98837.56;;;5.16;100.00
74524;BME280;63074;44.696;10.358;2023-02-26T13:51:43;98860.38;;;5.12;100.00
74524;BME280;63074;44.696;10.358;2023-02-26T13:57:07;98857.53;;;4.83;100.00
74524;BME280;63074;44.696;10.358;2023-02-26T14:04:59;98877.47;;;5.04;100.00
74524;BME280;63074;44.696;10.358;2023-02-26T14:07:51;98878.16;;;4.88;100.00
74524;BME280;63074;44.696;10.358;2023-02-26T14:11:45;98878.09;;;4.76;100.00
74524;BME280;63074;44.696;10.358;2023-02-26T14:13:39;98886.59;;;4.66;100.00
74524;BME280;63074;44.696;10.358;2023-02-26T14:16:23;98893.38;;;4.81;100.00
74524;BME280;63074;44.696;10.358;2023-02-26T14:18:53;98900.84;;;4.90;100.00
74524;BME280;63074;44.696;10.358;2023-02-26T14:24:01;98902.28;;;4.74;100.00
74524;BME280;63074;44.696;10.358;2023-02-26T14:26:32;98897.91;;;4.92;100.00
74524;BME280;63074;44.696;10.358;2023-02-26T14:34:24;98902.72;;;4.71;100.00
74524;BME280;63074;44.696;10.358;2023-02-26T14:36:58;98923.88;;;4.66;100.00
74524;BME280;63074;44.696;10.358;2023-02-26T14:39:53;98914.66;;;4.51;100.00
74524;BME280;63074;44.696;10.358;2023-02-26T14:42:30;98917.63;;;4.61;100.00
74524;BME280;63074;44.696;10.358;2023-02-26T14:47:30;98943.53;;;4.65;100.00
74524;BME280;63074;44.696;10.358;2023-02-26T14:49:56;98941.22;;;4.69;100.00
74524;BME280;63074;44.696;10.358;2023-02-26T14:55:22;98951.72;;;4.64;100.00
74524;BME280;63074;44.696;10.358;2023-02-26T15:05:57;98955.00;;;4.48;100.00
74524;BME280;63074;44.696;10.358;2023-02-26T15:14:28;98983.84;;;4.51;100.00
74524;BME280;63074;44.696;10.358;2023-02-26T15:17:43;98990.69;;;4.40;100.00
74524;BME280;63074;44.696;10.358;2023-02-26T15:23:05;98999.63;;;4.46;100.00
74524;BME280;63074;44.696;10.358;2023-02-26T15:25:38;99020.41;;;4.55;100.00
74524;BME280;63074;44.696;10.358;2023-02-26T15:28:11;99019.13;;;4.39;100.00
74524;BME280;63074;44.696;10.358;2023-02-26T15:30:40;99019.13;;;4.39;100.00
74524;BME280;63074;44.696;10.358;2023-02-26T15:33:12;99026.06;;;4.22;100.00
74524;BME280;63074;44.696;10.358;2023-02-26T15:35:42;99029.53;;;4.23;100.00
74524;BME280;63074;44.696;10.358;2023-02-26T15:38:09;99025.84;;;4.24;100.00
74524;BME280;63074;44.696;10.358;2023-02-26T15:40:36;99031.66;;;4.14;100.00
74524;BME280;63074;44.696;10.358;2023-02-26T15:43:05;99036.22;;;4.32;100.00
74524;BME280;63074;44.696;10.358;2023-02-26T15:45:39;99035.75;;;4.35;100.00
74524;BME280;63074;44.696;10.358;2023-02-26T15:50:43;99053.94;;;4.38;100.00
74524;BME280;63074;44.696;10.358;2023-02-26T15:53:20;99045.22;;;4.06;100.00
74524;BME280;63074;44.696;10.358;2023-02-26T15:55:53;99058.41;;;4.19;100.00
74524;BME280;63074;44.696;10.358;2023-02-26T15:58:43;99078.22;;;4.23;100.00
74524;BME280;63074;44.696;10.358;2023-02-26T16:01:21;99068.19;;;4.25;100.00
74524;BME280;63074;44.696;10.358;2023-02-26T16:03:50;99058.09;;;4.09;100.00
74524;BME280;63074;44.696;10.358;2023-02-26T16:06:32;99082.16;;;3.89;100.00
74524;BME280;63074;44.696;10.358;2023-02-26T16:09:00;99089.38;;;4.07;100.00
74524;BME280;63074;44.696;10.358;2023-02-26T16:11:33;99086.63;;;3.95;100.00
74524;BME280;63074;44.696;10.358;2023-02-26T16:14:01;99095.59;;;4.26;100.00
74524;BME280;63074;44.696;10.358;2023-02-26T16:16:41;99099.75;;;4.15;100.00